createdAt,value
2024-04-23T00:00:06.654Z,602.00
2024-04-23T00:01:06.718Z,601.00
2024-04-23T00:02:06.705Z,603.00
2024-04-23T00:03:06.699Z,606.00
2024-04-23T00:04:06.688Z,604.00
2024-04-23T00:05:06.681Z,608.00
2024-04-23T00:06:06.661Z,603.00
2024-04-23T00:07:06.657Z,605.00
2024-04-23T00:08:06.741Z,605.00
2024-04-23T00:09:06.665Z,605.00
2024-04-23T00:10:06.665Z,604.00
2024-04-23T00:11:06.935Z,605.00
2024-04-23T00:12:06.670Z,603.00
2024-04-23T00:13:06.668Z,606.00
2024-04-23T00:14:06.671Z,606.00
2024-04-23T00:15:06.667Z,606.00
2024-04-23T00:16:06.672Z,603.00
2024-04-23T00:17:06.692Z,601.00
2024-04-23T00:18:06.874Z,603.00
2024-04-23T00:19:06.674Z,608.00
2024-04-23T00:20:06.780Z,605.00
2024-04-23T00:21:06.679Z,603.00
2024-04-23T00:22:06.679Z,604.00
2024-04-23T00:23:06.692Z,604.00
2024-04-23T00:24:06.679Z,605.00
2024-04-23T00:25:06.681Z,606.00
2024-04-23T00:26:06.692Z,608.00
2024-04-23T00:27:06.701Z,603.00
2024-04-23T00:28:06.720Z,607.00
2024-04-23T00:29:06.728Z,607.00
2024-04-23T00:30:06.747Z,607.00
2024-04-23T00:31:06.761Z,605.00
2024-04-23T00:32:06.948Z,605.00
2024-04-23T00:33:06.811Z,605.00
2024-04-23T00:34:06.798Z,604.00
2024-04-23T00:35:06.858Z,604.00
2024-04-23T00:36:06.827Z,605.00
2024-04-23T00:37:06.846Z,606.00
2024-04-23T00:38:06.844Z,605.00
2024-04-23T00:39:06.915Z,603.00
2024-04-23T00:40:06.885Z,603.00
2024-04-23T00:41:06.893Z,601.00
2024-04-23T00:42:06.901Z,604.00
2024-04-23T00:43:06.928Z,604.00
2024-04-23T00:44:06.925Z,604.00
2024-04-23T00:45:06.941Z,606.00
2024-04-23T00:46:06.965Z,606.00
2024-04-23T00:47:07.006Z,605.00
2024-04-23T00:48:07.019Z,601.00
2024-04-23T00:49:07.003Z,602.00
2024-04-23T00:50:07.067Z,605.00
2024-04-23T00:51:07.052Z,607.00
2024-04-23T00:52:07.059Z,603.00
2024-04-23T00:53:07.073Z,602.00
2024-04-23T00:54:07.092Z,604.00
2024-04-23T00:55:07.117Z,607.00
2024-04-23T00:56:07.193Z,609.00
2024-04-23T00:57:07.133Z,606.00
2024-04-23T00:58:07.146Z,607.00
2024-04-23T00:59:07.339Z,611.00
2024-04-23T01:00:07.164Z,605.00
2024-04-23T01:01:07.218Z,608.00
2024-04-23T01:02:07.418Z,605.00
2024-04-23T01:03:07.363Z,608.00
2024-04-23T01:04:07.229Z,607.00
2024-04-23T01:05:07.323Z,607.00
2024-04-23T01:06:07.269Z,612.00
2024-04-23T01:07:07.287Z,611.00
2024-04-23T01:08:07.348Z,608.00
2024-04-23T01:09:07.304Z,608.00
2024-04-23T01:10:07.328Z,610.00
2024-04-23T01:11:07.433Z,608.00
2024-04-23T01:12:07.347Z,615.00
2024-04-23T01:13:07.371Z,610.00
2024-04-23T01:14:07.447Z,618.00
2024-04-23T01:15:07.386Z,612.00
2024-04-23T01:16:07.393Z,617.00
2024-04-23T01:17:07.579Z,614.00
2024-04-23T01:18:07.612Z,615.00
2024-04-23T01:19:07.424Z,619.00
2024-04-23T01:20:07.524Z,615.00
2024-04-23T01:21:07.447Z,613.00
2024-04-23T01:22:07.458Z,612.00
2024-04-23T01:23:07.467Z,617.00
2024-04-23T01:24:07.482Z,616.00
2024-04-23T01:25:07.489Z,618.00
2024-04-23T01:26:07.564Z,615.00
2024-04-23T01:27:07.503Z,612.00
2024-04-23T01:28:07.514Z,612.00
2024-04-23T01:29:07.519Z,619.00
2024-04-23T01:30:07.538Z,615.00
2024-04-23T01:31:07.552Z,615.00
2024-04-23T01:32:07.562Z,616.00
2024-04-23T01:33:07.637Z,613.00
2024-04-23T01:34:07.583Z,614.00
2024-04-23T01:35:07.617Z,616.00
2024-04-23T01:36:07.616Z,620.00
2024-04-23T01:37:07.645Z,611.00
2024-04-23T01:38:07.641Z,614.00
2024-04-23T01:39:07.679Z,614.00
2024-04-23T01:40:07.684Z,611.00
2024-04-23T01:41:07.684Z,614.00
2024-04-23T01:42:07.704Z,614.00
2024-04-23T01:43:07.717Z,617.00
2024-04-23T01:44:07.729Z,617.00
2024-04-23T01:45:07.787Z,619.00
2024-04-23T01:46:07.754Z,620.00
2024-04-23T01:47:08.010Z,623.00
2024-04-23T01:48:07.853Z,618.00
2024-04-23T01:49:07.790Z,621.00
2024-04-23T01:50:07.880Z,618.00
2024-04-23T01:51:07.820Z,620.00
2024-04-23T01:52:07.840Z,619.00
2024-04-23T01:53:08.838Z,621.00
2024-04-23T01:54:07.862Z,622.00
2024-04-23T01:55:07.867Z,620.00
2024-04-23T01:56:07.877Z,621.00
2024-04-23T01:57:07.895Z,622.00
2024-04-23T01:58:07.907Z,624.00
2024-04-23T01:59:07.925Z,623.00
2024-04-23T02:00:07.944Z,623.00
2024-04-23T02:01:08.001Z,626.00
2024-04-23T02:02:08.018Z,622.00
2024-04-23T02:03:08.072Z,625.00
2024-04-23T02:04:07.994Z,625.00
2024-04-23T02:05:08.026Z,623.00
2024-04-23T02:06:08.036Z,628.00
2024-04-23T02:07:08.052Z,627.00
2024-04-23T02:08:08.121Z,625.00
2024-04-23T02:09:08.082Z,629.00
2024-04-23T02:10:08.092Z,628.00
2024-04-23T02:11:08.185Z,629.00
2024-04-23T02:12:08.123Z,634.00
2024-04-23T02:13:08.138Z,633.00
2024-04-23T02:14:08.155Z,632.00
2024-04-23T02:15:08.206Z,630.00
2024-04-23T02:16:08.198Z,634.00
2024-04-23T02:17:08.333Z,627.00
2024-04-23T02:18:08.381Z,631.00
2024-04-23T02:19:08.245Z,630.00
2024-04-23T02:20:08.256Z,635.00
2024-04-23T02:21:08.332Z,633.00
2024-04-23T02:22:08.270Z,638.00
2024-04-23T02:23:08.397Z,630.00
2024-04-23T02:24:08.316Z,633.00
2024-04-23T02:25:08.372Z,633.00
2024-04-23T02:26:08.516Z,633.00
2024-04-23T02:27:08.407Z,636.00
2024-04-23T02:28:08.430Z,635.00
2024-04-23T02:29:08.450Z,636.00
2024-04-23T02:30:08.439Z,629.00
2024-04-23T02:31:08.431Z,637.00
2024-04-23T02:32:08.515Z,634.00
2024-04-23T02:33:08.565Z,634.00
2024-04-23T02:34:08.484Z,635.00
2024-04-23T02:35:08.513Z,636.00
2024-04-23T02:36:08.489Z,640.00
2024-04-23T02:37:08.508Z,639.00
2024-04-23T02:38:08.523Z,639.00
2024-04-23T02:39:08.542Z,640.00
2024-04-23T02:40:08.601Z,639.00
2024-04-23T02:41:08.652Z,642.00
2024-04-23T02:42:08.590Z,638.00
2024-04-23T02:43:08.602Z,641.00
2024-04-23T02:44:08.630Z,637.00
2024-04-23T02:45:08.662Z,641.00
2024-04-23T02:46:08.659Z,642.00
2024-04-23T02:47:08.758Z,644.00
2024-04-23T02:48:08.887Z,641.00
2024-04-23T02:49:08.709Z,638.00
2024-04-23T02:50:08.758Z,640.00
2024-04-23T02:51:08.748Z,640.00
2024-04-23T02:52:08.757Z,637.00
2024-04-23T02:53:08.795Z,639.00
2024-04-23T02:54:08.787Z,645.00
2024-04-23T02:55:08.793Z,639.00
2024-04-23T02:56:08.839Z,638.00
2024-04-23T02:57:08.819Z,637.00
2024-04-23T02:58:08.839Z,636.00
2024-04-23T02:59:08.852Z,638.00
2024-04-23T03:00:08.905Z,638.00
2024-04-23T03:01:08.943Z,636.00
2024-04-23T03:02:09.012Z,638.00
2024-04-23T03:03:08.952Z,638.00
2024-04-23T03:04:08.927Z,636.00
2024-04-23T03:05:08.983Z,636.00
2024-04-23T03:06:08.965Z,636.00
2024-04-23T03:07:08.980Z,633.00
2024-04-23T03:08:09.045Z,635.00
2024-04-23T03:09:09.015Z,633.00
2024-04-23T03:10:09.036Z,630.00
2024-04-23T03:11:09.130Z,634.00
2024-04-23T03:12:09.081Z,632.00
2024-04-23T03:13:09.095Z,632.00
2024-04-23T03:14:09.179Z,630.00
2024-04-23T03:15:09.132Z,628.00
2024-04-23T03:16:10.310Z,633.00
2024-04-23T03:17:09.182Z,627.00
2024-04-23T03:18:09.281Z,630.00
2024-04-23T03:19:09.190Z,634.00
2024-04-23T03:20:09.248Z,630.00
2024-04-23T03:21:09.232Z,630.00
2024-04-23T03:22:09.243Z,634.00
2024-04-23T03:23:09.270Z,628.00
2024-04-23T03:24:09.275Z,633.00
2024-04-23T03:25:09.301Z,627.00
2024-04-23T03:26:09.352Z,627.00
2024-04-23T03:27:09.371Z,631.00
2024-04-23T03:28:09.367Z,629.00
2024-04-23T03:29:09.385Z,628.00
2024-04-23T03:30:09.408Z,629.00
2024-04-23T03:31:09.408Z,631.00
2024-04-23T03:32:09.486Z,627.00
2024-04-23T03:33:09.521Z,628.00
2024-04-23T03:34:09.462Z,629.00
2024-04-23T03:35:09.605Z,632.00
2024-04-23T03:36:09.500Z,626.00
2024-04-23T03:37:09.506Z,627.00
2024-04-23T03:38:09.532Z,629.00
2024-04-23T03:39:09.539Z,629.00
2024-04-23T03:40:09.577Z,626.00
2024-04-23T03:41:09.618Z,628.00
2024-04-23T03:42:09.595Z,631.00
2024-04-23T03:43:09.613Z,626.00
2024-04-23T03:44:09.757Z,630.00
2024-04-23T03:45:09.649Z,628.00
2024-04-23T03:46:09.666Z,629.00
2024-04-23T03:47:09.795Z,630.00
2024-04-23T03:48:09.765Z,627.00
2024-04-23T03:49:09.712Z,626.00
2024-04-23T03:50:09.827Z,630.00
2024-04-23T03:51:09.754Z,631.00
2024-04-23T03:52:09.804Z,625.00
2024-04-23T03:53:09.802Z,624.00
2024-04-23T03:54:09.802Z,623.00
2024-04-23T03:55:09.832Z,624.00
2024-04-23T03:56:09.849Z,625.00
2024-04-23T03:57:09.886Z,620.00
2024-04-23T03:58:09.878Z,624.00
2024-04-23T03:59:09.907Z,621.00
2024-04-23T04:00:09.980Z,619.00
2024-04-23T04:01:10.000Z,618.00
2024-04-23T04:02:09.993Z,616.00
2024-04-23T04:03:10.058Z,621.00
2024-04-23T04:04:10.029Z,621.00
2024-04-23T04:05:10.073Z,624.00
2024-04-23T04:06:10.086Z,616.00
2024-04-23T04:07:10.070Z,625.00
2024-04-23T04:08:10.095Z,620.00
2024-04-23T04:09:10.105Z,629.00
2024-04-23T04:10:10.117Z,627.00
2024-04-23T04:11:10.198Z,629.00
2024-04-23T04:12:10.154Z,627.00
2024-04-23T04:13:20.874Z,629.00
2024-04-23T04:14:11.214Z,629.00
2024-04-23T04:15:10.172Z,626.00
2024-04-23T04:16:10.179Z,627.00
2024-04-23T04:17:10.251Z,629.00
2024-04-23T04:18:10.260Z,628.00
2024-04-23T04:19:10.192Z,628.00
2024-04-23T04:20:10.303Z,626.00
2024-04-23T04:21:10.191Z,629.00
2024-04-23T04:22:10.196Z,626.00
2024-04-23T04:23:10.273Z,627.00
2024-04-23T04:24:10.202Z,628.00
2024-04-23T04:25:10.210Z,628.00
2024-04-23T04:26:10.248Z,628.00
2024-04-23T04:27:10.211Z,627.00
2024-04-23T04:28:10.217Z,628.00
2024-04-23T04:29:10.253Z,630.00
2024-04-23T04:30:10.209Z,626.00
2024-04-23T04:31:10.220Z,628.00
2024-04-23T04:32:10.256Z,627.00
2024-04-23T04:33:10.278Z,625.00
2024-04-23T04:34:10.224Z,626.00
2024-04-23T04:35:10.265Z,629.00
2024-04-23T04:36:10.256Z,625.00
2024-04-23T04:37:10.230Z,627.00
2024-04-23T04:38:10.264Z,620.00
2024-04-23T04:39:10.230Z,623.00
2024-04-23T04:40:10.232Z,620.00
2024-04-23T04:41:10.258Z,625.00
2024-04-23T04:42:10.236Z,620.00
2024-04-23T04:43:10.242Z,618.00
2024-04-23T04:44:10.298Z,622.00
2024-04-23T04:45:10.245Z,620.00
2024-04-23T04:46:10.239Z,624.00
2024-04-23T04:47:11.909Z,619.00
2024-04-23T04:48:10.381Z,622.00
2024-04-23T04:49:10.252Z,623.00
2024-04-23T04:50:10.326Z,621.00
2024-04-23T04:51:10.248Z,623.00
2024-04-23T04:52:10.251Z,625.00
2024-04-23T04:53:10.347Z,627.00
2024-04-23T04:54:10.252Z,630.00
2024-04-23T04:55:10.243Z,630.00
2024-04-23T04:56:10.270Z,629.00
2024-04-23T04:57:10.291Z,628.00
2024-04-23T04:58:10.332Z,628.00
2024-04-23T04:59:10.333Z,630.00
2024-04-23T05:00:10.404Z,629.00
2024-04-23T05:01:10.434Z,627.00
2024-04-23T05:02:10.400Z,628.00
2024-04-23T05:03:10.396Z,627.00
2024-04-23T05:04:10.424Z,626.00
2024-04-23T05:05:10.498Z,628.00
2024-04-23T05:06:10.439Z,629.00
2024-04-23T05:07:10.443Z,632.00
2024-04-23T05:08:10.454Z,628.00
2024-04-23T05:09:10.477Z,630.00
2024-04-23T05:10:10.477Z,633.00
2024-04-23T05:11:10.514Z,633.00
2024-04-23T05:12:10.522Z,639.00
2024-04-23T05:13:10.517Z,636.00
2024-04-23T05:14:10.536Z,636.00
2024-04-23T05:15:10.542Z,641.00
2024-04-23T05:16:10.564Z,641.00
2024-04-23T05:17:10.702Z,643.00
2024-04-23T05:18:10.668Z,640.00
2024-04-23T05:19:10.604Z,645.00
2024-04-23T05:20:10.640Z,647.00
2024-04-23T05:21:10.643Z,647.00
2024-04-23T05:22:10.643Z,650.00
2024-04-23T05:23:10.662Z,656.00
2024-04-23T05:24:10.673Z,648.00
2024-04-23T05:25:10.691Z,654.00
2024-04-23T05:26:10.689Z,656.00
2024-04-23T05:27:10.932Z,655.00
2024-04-23T05:28:10.766Z,658.00
2024-04-23T05:29:10.755Z,665.00
2024-04-23T05:30:10.732Z,661.00
2024-04-23T05:31:10.763Z,660.00
2024-04-23T05:32:10.970Z,665.00
2024-04-23T05:33:10.861Z,670.00
2024-04-23T05:34:10.835Z,683.00
2024-04-23T05:35:10.911Z,689.00
2024-04-23T05:36:10.950Z,701.00
2024-04-23T05:37:10.939Z,737.00
2024-04-23T05:38:10.929Z,770.00
2024-04-23T05:39:10.923Z,798.00
2024-04-23T05:40:10.933Z,835.00
2024-04-23T05:41:10.991Z,862.00
2024-04-23T05:42:10.941Z,897.00
2024-04-23T05:43:10.969Z,931.00
2024-04-23T05:44:11.052Z,954.00
2024-04-23T05:45:11.104Z,992.00
2024-04-23T05:46:11.446Z,1013.00
2024-04-23T05:47:12.116Z,1043.00
2024-04-23T05:48:11.429Z,1058.00
2024-04-23T05:49:11.369Z,1081.00
2024-04-23T05:50:11.455Z,1096.00
2024-04-23T05:51:11.460Z,1129.00
2024-04-23T05:52:19.647Z,1143.00
2024-04-23T05:53:12.558Z,1144.00
2024-04-23T05:54:11.534Z,1149.00
2024-04-23T05:55:11.538Z,1159.00
2024-04-23T05:56:11.630Z,1182.00
2024-04-23T05:57:11.955Z,1203.00
2024-04-23T05:58:11.535Z,1201.00
2024-04-23T05:59:11.592Z,1205.00
2024-04-23T06:00:11.536Z,1193.00
2024-04-23T06:01:12.025Z,1166.00
2024-04-23T06:02:11.549Z,1176.00
2024-04-23T06:03:11.574Z,1176.00
2024-04-23T06:04:11.656Z,1163.00
2024-04-23T06:05:11.692Z,1197.00
2024-04-23T06:06:11.963Z,1208.00
2024-04-23T06:07:11.791Z,1206.00
2024-04-23T06:08:11.930Z,1209.00
2024-04-23T06:09:11.866Z,1208.00
2024-04-23T06:10:11.932Z,1258.00
2024-04-23T06:11:12.060Z,1252.00
2024-04-23T06:12:11.998Z,1259.00
2024-04-23T06:13:12.049Z,1241.00
2024-04-23T06:14:12.127Z,1242.00
2024-04-23T06:15:12.124Z,1222.00
2024-04-23T06:16:12.164Z,1222.00
2024-04-23T06:17:12.236Z,1237.00
2024-04-23T06:18:12.301Z,1230.00
2024-04-23T06:19:12.260Z,1233.00
2024-04-23T06:20:12.329Z,1205.00
2024-04-23T06:21:12.325Z,1218.00
2024-04-23T06:22:12.827Z,1221.00
2024-04-23T06:23:12.440Z,1229.00
2024-04-23T06:24:12.452Z,1214.00
2024-04-23T06:25:12.523Z,1216.00
2024-04-23T06:26:12.577Z,1231.00
2024-04-23T06:27:12.544Z,1210.00
2024-04-23T06:28:12.608Z,1219.00
2024-04-23T06:29:12.612Z,1204.00
2024-04-23T06:30:12.668Z,1229.00
2024-04-23T06:31:12.667Z,1227.00
2024-04-23T06:32:12.766Z,1216.00
2024-04-23T06:33:13.111Z,1238.00
2024-04-23T06:34:12.812Z,1248.00
2024-04-23T06:35:12.895Z,1222.00
2024-04-23T06:36:12.963Z,1241.00
2024-04-23T06:37:12.968Z,1232.00
2024-04-23T06:38:13.051Z,1213.00
2024-04-23T06:39:13.065Z,1213.00
2024-04-23T06:40:13.126Z,1195.00
2024-04-23T06:41:13.175Z,1164.00
2024-04-23T06:42:13.227Z,1157.00
2024-04-23T06:43:15.239Z,1134.00
2024-04-23T06:44:13.368Z,1120.00
2024-04-23T06:45:13.458Z,1105.00
2024-04-23T06:46:13.515Z,1091.00
2024-04-23T06:47:13.575Z,1070.00
2024-04-23T06:48:13.669Z,1060.00
2024-04-23T06:49:13.681Z,1043.00
2024-04-23T06:50:13.769Z,1030.00
2024-04-23T06:51:13.763Z,1026.00
2024-04-23T06:52:13.815Z,1012.00
2024-04-23T06:53:13.858Z,1003.00
2024-04-23T06:54:13.857Z,983.00
2024-04-23T06:55:13.877Z,969.00
2024-04-23T06:56:13.981Z,967.00
2024-04-23T06:57:13.897Z,946.00
2024-04-23T06:58:13.917Z,938.00
2024-04-23T06:59:14.005Z,913.00
2024-04-23T07:00:13.923Z,902.00
2024-04-23T07:01:13.963Z,896.00
2024-04-23T07:02:14.122Z,882.00
2024-04-23T07:03:13.958Z,857.00
2024-04-23T07:04:13.960Z,854.00
2024-04-23T07:05:14.051Z,858.00
2024-04-23T07:06:14.018Z,845.00
2024-04-23T07:07:14.030Z,846.00
2024-04-23T07:08:14.098Z,838.00
2024-04-23T07:09:14.044Z,834.00
2024-04-23T07:10:14.066Z,825.00
2024-04-23T07:11:14.150Z,819.00
2024-04-23T07:12:14.092Z,806.00
2024-04-23T07:13:14.089Z,803.00
2024-04-23T07:14:14.111Z,797.00
2024-04-23T07:15:14.121Z,798.00
2024-04-23T07:16:14.130Z,798.00
2024-04-23T07:17:14.212Z,792.00
2024-04-23T07:18:14.196Z,798.00
2024-04-23T07:19:14.205Z,810.00
2024-04-23T07:20:14.377Z,819.00
2024-04-23T07:21:14.224Z,824.00
2024-04-23T07:22:14.239Z,830.00
2024-04-23T07:23:14.254Z,825.00
2024-04-23T07:24:14.274Z,820.00
2024-04-23T07:25:14.290Z,820.00
2024-04-23T07:26:14.488Z,831.00
2024-04-23T07:27:14.344Z,857.00
2024-04-23T07:28:14.378Z,897.00
2024-04-23T07:29:14.416Z,932.00
2024-04-23T07:30:14.421Z,964.00
2024-04-23T07:31:14.498Z,987.00
2024-04-23T07:32:14.928Z,1020.00
2024-04-23T07:33:14.564Z,1058.00
2024-04-23T07:34:14.987Z,1085.00
2024-04-23T07:35:14.540Z,1108.00
2024-04-23T07:36:14.537Z,1124.00
2024-04-23T07:37:14.592Z,1140.00
2024-04-23T07:38:14.644Z,1152.00
2024-04-23T07:39:14.946Z,1162.00
2024-04-23T07:40:14.789Z,1177.00
2024-04-23T07:41:14.862Z,1187.00
2024-04-23T07:42:14.916Z,1204.00
2024-04-23T07:43:15.035Z,1215.00
2024-04-23T07:44:15.101Z,1234.00
2024-04-23T07:45:15.139Z,1228.00
2024-04-23T07:46:15.149Z,1240.00
2024-04-23T07:47:15.271Z,1236.00
2024-04-23T07:48:15.357Z,1259.00
2024-04-23T07:49:15.311Z,1278.00
2024-04-23T07:50:15.343Z,1289.00
2024-04-23T07:51:15.395Z,1305.00
2024-04-23T07:52:15.433Z,1317.00
2024-04-23T07:53:15.492Z,1308.00
2024-04-23T07:54:15.517Z,1304.00
2024-04-23T07:55:15.542Z,1337.00
2024-04-23T07:56:15.646Z,1314.00
2024-04-23T07:57:15.611Z,1318.00
2024-04-23T07:58:15.644Z,1337.00
2024-04-23T07:59:15.696Z,1329.00
2024-04-23T08:00:15.711Z,1318.00
2024-04-23T08:01:16.146Z,1336.00
2024-04-23T08:02:15.818Z,1341.00
2024-04-23T08:03:15.792Z,1329.00
2024-04-23T08:04:15.808Z,1364.00
2024-04-23T08:05:15.902Z,1346.00
2024-04-23T08:06:15.842Z,1342.00
2024-04-23T08:07:15.873Z,1355.00
2024-04-23T08:08:15.895Z,1339.00
2024-04-23T08:09:15.902Z,1361.00
2024-04-23T08:10:15.908Z,1340.00
2024-04-23T08:11:16.148Z,1359.00
2024-04-23T08:12:15.922Z,1331.00
2024-04-23T08:13:15.930Z,1322.00
2024-04-23T08:14:15.980Z,1319.00
2024-04-23T08:15:18.784Z,1343.00
2024-04-23T08:16:15.988Z,1367.00
2024-04-23T08:17:16.039Z,1368.00
2024-04-23T08:18:16.032Z,1368.00
2024-04-23T08:19:15.962Z,1399.00
2024-04-23T08:20:15.970Z,1395.00
2024-04-23T08:21:16.022Z,1374.00
2024-04-23T08:22:15.971Z,1350.00
2024-04-23T08:23:15.987Z,1348.00
2024-04-23T08:24:15.964Z,1332.00
2024-04-23T08:25:15.961Z,1281.00
2024-04-23T08:26:16.250Z,1281.00
2024-04-23T08:27:15.959Z,1242.00
2024-04-23T08:28:15.984Z,1207.00
2024-04-23T08:29:15.972Z,1196.00
2024-04-23T08:30:15.963Z,1159.00
2024-04-23T08:31:15.967Z,1131.00
2024-04-23T08:32:15.966Z,1086.00
2024-04-23T08:33:16.040Z,1062.00
2024-04-23T08:34:15.992Z,1043.00
2024-04-23T08:35:15.972Z,1038.00
2024-04-23T08:36:16.014Z,1016.00
2024-04-23T08:37:15.979Z,1005.00
2024-04-23T08:38:15.978Z,985.00
2024-04-23T08:39:23.338Z,600.00
2024-04-23T08:40:23.185Z,600.00
2024-04-23T08:41:23.288Z,600.00
2024-04-23T08:42:23.194Z,600.00
2024-04-23T08:43:23.209Z,600.00
2024-04-23T08:44:23.217Z,600.00
2024-04-23T08:45:23.199Z,602.00
2024-04-23T08:46:23.201Z,600.00
2024-04-23T08:47:23.258Z,601.00
2024-04-23T08:48:23.234Z,604.00
2024-04-23T08:49:23.213Z,601.00
2024-04-23T08:50:23.379Z,603.00
2024-04-23T08:51:23.204Z,600.00
2024-04-23T08:52:23.228Z,600.00
2024-04-23T08:53:23.213Z,600.00
2024-04-23T08:54:23.202Z,600.00
2024-04-23T08:55:23.222Z,601.00
2024-04-23T08:56:23.211Z,600.00
2024-04-23T08:57:23.212Z,600.00
2024-04-23T08:58:23.220Z,600.00
2024-04-23T08:59:23.258Z,602.00
2024-04-23T09:00:23.240Z,603.00
2024-04-23T09:01:23.266Z,602.00
2024-04-23T09:02:23.277Z,604.00
2024-04-23T09:03:23.224Z,604.00
2024-04-23T09:04:23.371Z,600.00
2024-04-23T09:05:24.340Z,604.00
2024-04-23T09:06:23.249Z,602.00
2024-04-23T09:07:30.133Z,601.00
2024-04-23T09:08:24.263Z,602.00
2024-04-23T09:09:23.250Z,603.00
2024-04-23T09:10:23.249Z,604.00
2024-04-23T09:11:23.339Z,607.00
2024-04-23T09:12:23.239Z,605.00
2024-04-23T09:13:23.243Z,607.00
2024-04-23T09:14:23.240Z,608.00
2024-04-23T09:15:23.259Z,609.00
2024-04-23T09:16:23.258Z,607.00
2024-04-23T09:17:23.326Z,607.00
2024-04-23T09:18:23.298Z,603.00
2024-04-23T09:19:23.266Z,606.00
2024-04-23T09:20:23.260Z,603.00
2024-04-23T09:21:23.273Z,601.00
2024-04-23T09:22:23.253Z,601.00
2024-04-23T09:23:23.260Z,602.00
2024-04-23T09:24:23.283Z,608.00
2024-04-23T09:25:23.254Z,608.00
2024-04-23T09:26:23.308Z,611.00
2024-04-23T09:27:23.272Z,619.00
2024-04-23T09:28:24.125Z,619.00
2024-04-23T09:29:23.372Z,627.00
2024-04-23T09:30:23.272Z,847.00
2024-04-23T09:31:23.312Z,925.00
2024-04-23T09:32:23.345Z,976.00
2024-04-23T09:33:23.286Z,1008.00
2024-04-23T09:34:23.650Z,1065.00
2024-04-23T09:35:23.354Z,1071.00
2024-04-23T09:36:23.839Z,1019.00
2024-04-23T09:37:23.391Z,978.00
2024-04-23T09:38:23.425Z,935.00
2024-04-23T09:39:23.448Z,901.00
2024-04-23T09:40:23.428Z,872.00
2024-04-23T09:41:23.815Z,823.00
2024-04-23T09:42:23.467Z,773.00
2024-04-23T09:43:23.517Z,743.00
2024-04-23T09:44:23.573Z,707.00
2024-04-23T09:45:23.616Z,669.00
2024-04-23T09:46:23.815Z,657.00
2024-04-23T09:47:23.836Z,645.00
2024-04-23T09:48:23.908Z,636.00
2024-04-23T09:49:23.751Z,627.00
2024-04-23T09:50:23.774Z,615.00
2024-04-23T09:51:23.816Z,607.00
2024-04-23T09:52:25.627Z,600.00
2024-04-23T09:53:23.871Z,600.00
2024-04-23T09:54:23.887Z,601.00
2024-04-23T09:55:23.869Z,600.00
2024-04-23T09:56:23.871Z,600.00
2024-04-23T09:57:23.880Z,605.00
2024-04-23T09:58:25.880Z,601.00
2024-04-23T09:59:23.896Z,602.00
2024-04-23T10:00:23.893Z,602.00
2024-04-23T10:01:23.882Z,601.00
2024-04-23T10:02:24.016Z,601.00
2024-04-23T10:03:23.984Z,600.00
2024-04-23T10:04:25.623Z,603.00
2024-04-23T10:05:24.047Z,603.00
2024-04-23T10:06:23.891Z,600.00
2024-04-23T10:07:23.894Z,598.00
2024-04-23T10:08:23.900Z,596.00
2024-04-23T10:09:23.902Z,589.00
2024-04-23T10:10:24.237Z,600.00
2024-04-23T10:11:23.970Z,600.00
2024-04-23T10:12:23.901Z,602.00
2024-04-23T10:13:23.903Z,603.00
2024-04-23T10:14:23.912Z,603.00
2024-04-23T10:15:23.918Z,604.00
2024-04-23T10:16:23.904Z,603.00
2024-04-23T10:17:23.917Z,605.00
2024-04-23T10:18:24.040Z,604.00
2024-04-23T10:19:23.904Z,602.00
2024-04-23T10:20:23.941Z,603.00
2024-04-23T10:21:24.330Z,606.00
2024-04-23T10:22:23.924Z,604.00
2024-04-23T10:23:23.916Z,608.00
2024-04-23T10:24:23.922Z,611.00
2024-04-23T10:25:23.918Z,612.00
2024-04-23T10:26:23.976Z,620.00
2024-04-23T10:27:23.935Z,621.00
2024-04-23T10:28:23.955Z,622.00
2024-04-23T10:29:23.945Z,625.00
2024-04-23T10:30:23.945Z,624.00
2024-04-23T10:31:24.335Z,623.00
2024-04-23T10:32:24.016Z,619.00
2024-04-23T10:33:24.088Z,625.00
2024-04-23T10:34:23.942Z,620.00
2024-04-23T10:35:23.932Z,614.00
2024-04-23T10:36:23.940Z,620.00
2024-04-23T10:37:23.979Z,618.00
2024-04-23T10:38:24.007Z,613.00
2024-04-23T10:39:24.083Z,608.00
2024-04-23T10:40:24.009Z,603.00
2024-04-23T10:41:23.976Z,600.00
2024-04-23T10:42:23.944Z,600.00
2024-04-23T10:43:23.950Z,597.00
2024-04-23T10:44:23.981Z,600.00
2024-04-23T10:45:23.957Z,601.00
2024-04-23T10:46:23.953Z,603.00
2024-04-23T10:47:23.991Z,600.00
2024-04-23T10:48:23.992Z,600.00
2024-04-23T10:49:23.978Z,602.00
2024-04-23T10:50:23.975Z,603.00
2024-04-23T10:51:23.964Z,605.00
2024-04-23T10:52:23.997Z,610.00
2024-04-23T10:53:23.966Z,613.00
2024-04-23T10:54:23.997Z,623.00
2024-04-23T10:55:24.023Z,627.00
2024-04-23T10:56:24.345Z,639.00
2024-04-23T10:57:24.094Z,652.00
2024-04-23T10:58:24.110Z,671.00
2024-04-23T10:59:25.834Z,692.00
2024-04-23T11:00:24.138Z,693.00
2024-04-23T11:01:24.133Z,701.00
2024-04-23T11:02:24.162Z,720.00
2024-04-23T11:03:24.299Z,759.00
2024-04-23T11:04:24.172Z,831.00
2024-04-23T11:05:24.202Z,870.00
2024-04-23T11:06:24.165Z,890.00
2024-04-23T11:07:24.128Z,906.00
2024-04-23T11:08:24.152Z,901.00
2024-04-23T11:09:24.126Z,897.00
2024-04-23T11:10:24.130Z,908.00
2024-04-23T11:11:24.613Z,897.00
2024-04-23T11:12:24.147Z,889.00
2024-04-23T11:13:24.143Z,883.00
2024-04-23T11:14:24.151Z,892.00
2024-04-23T11:15:24.143Z,899.00
2024-04-23T11:16:24.361Z,899.00
2024-04-23T11:17:24.268Z,912.00
2024-04-23T11:18:24.267Z,917.00
2024-04-23T11:19:24.137Z,933.00
2024-04-23T11:20:24.168Z,944.00
2024-04-23T11:21:24.155Z,934.00
2024-04-23T11:22:24.150Z,934.00
2024-04-23T11:23:24.142Z,942.00
2024-04-23T11:24:24.161Z,925.00
2024-04-23T11:25:24.171Z,929.00
2024-04-23T11:26:24.151Z,936.00
2024-04-23T11:27:24.166Z,932.00
2024-04-23T11:28:24.167Z,935.00
2024-04-23T11:29:24.161Z,935.00
2024-04-23T11:30:24.177Z,938.00
2024-04-23T11:31:24.168Z,944.00
2024-04-23T11:32:24.256Z,959.00
2024-04-23T11:33:24.282Z,971.00
2024-04-23T11:34:24.173Z,975.00
2024-04-23T11:35:24.208Z,958.00
2024-04-23T11:36:24.197Z,957.00
2024-04-23T11:37:24.199Z,959.00
2024-04-23T11:38:24.176Z,956.00
2024-04-23T11:39:24.170Z,953.00
2024-04-23T11:40:24.187Z,952.00
2024-04-23T11:41:24.229Z,954.00
2024-04-23T11:42:24.182Z,953.00
2024-04-23T11:43:24.212Z,960.00
2024-04-23T11:44:24.203Z,955.00
2024-04-23T11:45:24.274Z,956.00
2024-04-23T11:46:24.208Z,947.00
2024-04-23T11:47:28.099Z,946.00
2024-04-23T11:48:24.275Z,946.00
2024-04-23T11:49:24.196Z,944.00
2024-04-23T11:50:24.198Z,945.00
2024-04-23T11:51:24.365Z,942.00
2024-04-23T11:52:24.194Z,949.00
2024-04-23T11:53:24.210Z,942.00
2024-04-23T11:54:24.191Z,940.00
2024-04-23T11:55:24.194Z,937.00
2024-04-23T11:56:24.197Z,944.00
2024-04-23T11:57:24.207Z,950.00
2024-04-23T11:58:24.208Z,948.00
2024-04-23T11:59:24.194Z,953.00
2024-04-23T12:00:24.201Z,965.00
2024-04-23T12:01:24.204Z,954.00
2024-04-23T12:02:24.206Z,964.00
2024-04-23T12:03:24.219Z,964.00
2024-04-23T12:04:24.344Z,957.00
2024-04-23T12:05:24.405Z,953.00
2024-04-23T12:06:24.430Z,945.00
2024-04-23T12:07:24.480Z,933.00
2024-04-23T12:08:24.544Z,925.00
2024-04-23T12:09:24.609Z,925.00
2024-04-23T12:10:24.680Z,906.00
2024-04-23T12:11:24.827Z,906.00
2024-04-23T12:12:24.812Z,908.00
2024-04-23T12:13:24.919Z,906.00
2024-04-23T12:14:24.947Z,912.00
2024-04-23T12:15:25.021Z,899.00
2024-04-23T12:16:25.094Z,900.00
2024-04-23T12:17:25.176Z,896.00
2024-04-23T12:18:25.294Z,896.00
2024-04-23T12:19:25.290Z,889.00
2024-04-23T12:20:25.358Z,890.00
2024-04-23T12:21:25.413Z,901.00
2024-04-23T12:22:25.482Z,886.00
2024-04-23T12:23:25.542Z,879.00
2024-04-23T12:24:27.606Z,871.00